Time;durP1;ratioP1;P1;durP2;ratioP2;P2;SDS_P1;SDS_P2;PMS_P1;PMS_P2;Temp;Humidity;BMP_temperature;BMP_pressure;BME280_temperature;BME280_humidity;BME280_pressure;Samples;Min_cycle;Max_cycle;Signal;HPM_P1;HPM_P2
2023/07/10 00:00:34;;;;;;;124.82;119.30;;;;;;;28.60;37.57;101928.94;5091995;28;20043;-70
2023/07/10 00:02:59;;;;;;;124.32;118.53;;;;;;;28.57;37.76;101926.81;5094012;28;20036;-70
2023/07/10 00:05:25;;;;;;;120.22;114.80;;;;;;;28.54;37.47;101925.53;5093701;28;20020;-70
2023/07/10 00:07:50;;;;;;;119.95;114.35;;;;;;;28.51;37.66;101912.31;5093938;28;20376;-71
2023/07/10 00:10:16;;;;;;;128.88;123.20;;;;;;;28.48;37.97;101913.00;5094253;28;20089;-73
2023/07/10 00:12:43;;;;;;;121.40;115.72;;;;;;;28.45;37.72;101906.16;5093826;28;20063;-70
2023/07/10 00:15:20;;;;;;;122.00;116.45;;;;;;;28.44;38.04;101900.88;5092613;28;20089;-71
2023/07/10 00:17:51;;;;;;;119.70;114.40;;;;;;;28.41;37.98;101896.81;5093791;28;20032;-71
2023/07/10 00:20:23;;;;;;;120.05;114.32;;;;;;;28.37;38.06;101895.84;5093499;28;20036;-71
2023/07/10 00:22:48;;;;;;;123.63;117.68;;;;;;;28.35;38.03;101902.88;5093495;28;20153;-70
2023/07/10 00:25:15;;;;;;;119.53;113.95;;;;;;;28.32;38.19;101907.16;5093675;28;20032;-70
2023/07/10 00:27:43;;;;;;;122.97;117.40;;;;;;;28.29;38.45;101910.59;5093319;28;20088;-70
2023/07/10 00:30:18;;;;;;;122.50;117.03;;;;;;;28.28;38.30;101922.88;5093677;28;20020;-69
2023/07/10 00:32:45;;;;;;;118.00;112.53;;;;;;;28.24;38.79;101916.34;5093592;28;20031;-69
2023/07/10 00:35:16;;;;;;;115.22;109.93;;;;;;;28.21;38.69;101923.41;5093569;28;20037;-69
2023/07/10 00:37:45;;;;;;;120.90;115.20;;;;;;;28.19;38.57;101922.09;5094259;28;20040;-70
2023/07/10 00:40:19;;;;;;;118.22;113.07;;;;;;;28.16;38.89;101915.25;5093509;28;20039;-70
2023/07/10 00:42:46;;;;;;;121.00;115.57;;;;;;;28.15;38.51;101918.34;5094280;28;20028;-70
2023/07/10 00:45:15;;;;;;;118.40;113.03;;;;;;;28.11;38.83;101923.78;5092830;28;20056;-70
2023/07/10 00:47:44;;;;;;;122.35;116.75;;;;;;;28.09;38.82;101925.25;5093428;28;20387;-70
2023/07/10 00:50:21;;;;;;;120.90;115.47;;;;;;;28.05;38.87;101923.16;5092631;28;20035;-70
2023/07/10 00:52:48;;;;;;;124.40;118.70;;;;;;;28.03;38.87;101914.34;5093781;28;20069;-72
2023/07/10 00:55:33;;;;;;;117.10;111.65;;;;;;;28.01;38.85;101913.03;5093517;28;20031;-70
2023/07/10 00:58:28;;;;;;;123.00;117.30;;;;;;;27.97;38.90;101912.91;5094521;28;20035;-71
2023/07/10 01:01:14;;;;;;;113.97;108.57;;;;;;;27.94;38.96;101921.88;5092825;28;20040;-71
2023/07/10 01:03:41;;;;;;;113.30;108.18;;;;;;;27.91;38.90;101928.09;5092844;28;20119;-71
2023/07/10 01:06:08;;;;;;;117.82;112.35;;;;;;;27.90;39.08;101925.69;5092970;28;20032;-70
2023/07/10 01:08:35;;;;;;;115.80;110.57;;;;;;;27.87;39.16;101918.84;5093345;28;20028;-75
2023/07/10 01:11:01;;;;;;;119.10;113.50;;;;;;;27.86;38.92;101919.16;5093013;28;20114;-70
2023/07/10 01:13:26;;;;;;;118.50;112.32;;;;;;;27.82;39.31;101905.94;5093218;28;20125;-70
2023/07/10 01:15:52;;;;;;;119.60;114.22;;;;;;;27.81;38.94;101901.50;5092828;28;20032;-70
2023/07/10 01:18:19;;;;;;;116.68;111.35;;;;;;;27.78;39.23;101902.16;5093194;28;20032;-70
2023/07/10 01:20:50;;;;;;;117.53;112.10;;;;;;;27.76;39.30;101895.31;5091915;28;20039;-70
2023/07/10 01:23:18;;;;;;;117.60;112.40;;;;;;;27.73;38.98;101902.34;5092928;28;20578;-70
2023/07/10 01:25:52;;;;;;;117.13;111.85;;;;;;;27.71;39.42;101912.13;5093215;28;20028;-70
2023/07/10 01:28:20;;;;;;;113.78;108.60;;;;;;;27.70;39.14;101907.75;5093456;28;20498;-70
2023/07/10 01:30:47;;;;;;;;;;;;;;;27.66;39.24;101907.56;5094182;28;20028;-70
2023/07/10 01:33:17;;;;;;;111.53;106.20;;;;;;;27.62;39.10;101910.22;5097023;28;20313;-70
2023/07/10 01:35:45;;;;;;;111.68;106.47;;;;;;;27.60;39.32;101912.50;5097144;28;20051;-71
2023/07/10 01:38:13;;;;;;;112.82;107.82;;;;;;;27.58;39.29;101917.56;5096840;28;20080;-70
2023/07/10 01:40:42;;;;;;;111.97;107.05;;;;;;;27.56;39.37;101919.84;5096392;28;20032;-74
2023/07/10 01:43:09;;;;;;;112.13;106.95;;;;;;;27.54;39.13;101918.53;5096784;28;20032;-70
2023/07/10 01:45:46;;;;;;;113.93;108.77;;;;;;;27.52;39.36;101918.09;5096694;28;20036;-70
2023/07/10 01:48:13;;;;;;;115.80;110.40;;;;;;;27.49;39.65;101913.16;5096984;28;20024;-70
2023/07/10 01:50:39;;;;;;;119.63;114.05;;;;;;;27.48;39.45;101919.88;5096543;28;20426;-70
2023/07/10 01:53:08;;;;;;;114.05;108.78;;;;;;;27.45;39.58;101918.56;5096622;28;20494;-73
2023/07/10 01:55:38;;;;;;;112.80;107.22;;;;;;;27.42;39.72;101916.47;5096541;28;20028;-70
2023/07/10 01:58:04;;;;;;;109.68;104.70;;;;;;;27.40;39.58;101915.97;5096424;28;20031;-70
2023/07/10 02:00:29;;;;;;;113.88;108.47;;;;;;;27.37;39.57;101923.00;5096498;28;20077;-70
2023/07/10 02:02:55;;;;;;;113.68;108.47;;;;;;;27.36;39.61;101917.75;5096595;28;20479;-70
2023/07/10 02:05:20;;;;;;;112.05;106.75;;;;;;;27.33;39.39;101922.00;5096256;28;20031;-69
2023/07/10 02:07:46;;;;;;;117.63;112.22;;;;;;;27.32;39.81;101925.94;5096522;28;20040;-73
2023/07/10 02:10:11;;;;;;;111.38;106.03;;;;;;;27.29;39.78;101932.16;5096638;28;20090;-70
2023/07/10 02:12:36;;;;;;;113.60;108.47;;;;;;;27.26;39.80;101935.56;5095968;28;20458;-70
2023/07/10 02:15:03;;;;;;;109.47;104.18;;;;;;;27.25;40.00;101927.59;5096004;28;20054;-70
2023/07/10 02:17:29;;;;;;;109.93;104.63;;;;;;;27.22;40.06;101929.06;5096250;28;20040;-70
2023/07/10 02:19:54;;;;;;;107.75;102.43;;;;;;;27.21;39.87;101929.38;5096007;28;20455;-70
2023/07/10 02:22:20;;;;;;;106.65;101.45;;;;;;;27.18;40.05;101928.88;5096217;28;20032;-70
2023/07/10 02:24:45;;;;;;;108.53;103.13;;;;;;;27.14;39.66;101930.66;5095928;28;20443;-70
2023/07/10 02:27:10;;;;;;;111.60;106.45;;;;;;;27.13;39.98;101931.78;5094593;28;20090;-70
2023/07/10 02:29:36;;;;;;;107.82;102.70;;;;;;;27.11;40.00;101931.28;5095518;28;20028;-70
2023/07/10 02:32:02;;;;;;;110.25;104.20;;;;;;;27.09;40.11;101928.06;5095930;28;20043;-70
2023/07/10 02:34:28;;;;;;;109.50;104.40;;;;;;;27.06;40.06;101925.09;5095680;28;20032;-71
2023/07/10 02:36:53;;;;;;;115.20;109.80;;;;;;;27.04;40.23;101924.59;5096146;28;20039;-70
2023/07/10 02:39:19;;;;;;;107.55;102.45;;;;;;;27.02;40.16;101922.16;5094205;28;20576;-70
2023/07/10 02:41:44;;;;;;;108.57;103.50;;;;;;;27.00;40.05;101929.19;5094417;28;20039;-70
2023/07/10 02:44:09;;;;;;;108.63;103.53;;;;;;;26.96;40.04;101918.75;5095934;28;20118;-70
2023/07/10 02:46:35;;;;;;;112.03;106.50;;;;;;;26.95;40.13;101916.28;5095546;28;20032;-70
2023/07/10 02:49:00;;;;;;;112.93;107.45;;;;;;;26.92;40.13;101923.31;5095757;28;20376;-70
2023/07/10 02:51:26;;;;;;;114.05;108.85;;;;;;;26.91;39.96;101926.41;5095196;28;20035;-70
2023/07/10 02:53:52;;;;;;;111.57;106.18;;;;;;;26.88;40.30;101927.84;5095960;28;20020;-70
2023/07/10 02:56:18;;;;;;;109.13;104.22;;;;;;;26.86;40.07;101932.94;5095453;28;20040;-70
2023/07/10 02:58:43;;;;;;;112.10;106.57;;;;;;;26.83;40.04;101939.09;5095094;28;20043;-69
2023/07/10 03:01:09;;;;;;;107.65;102.65;;;;;;;26.82;40.28;101931.13;5095524;28;20118;-70
2023/07/10 03:03:35;;;;;;;109.25;104.18;;;;;;;26.79;39.78;101937.31;5095252;28;20059;-70
2023/07/10 03:06:02;;;;;;;104.50;99.20;;;;;;;26.76;40.10;101942.38;5095277;28;20034;-73
2023/07/10 03:08:28;;;;;;;108.50;103.32;;;;;;;26.72;40.05;101949.69;5095290;28;20027;-70
2023/07/10 03:11:01;;;;;;;106.10;100.68;;;;;;;26.71;40.38;101959.16;5094903;28;20426;-70
2023/07/10 03:13:27;;;;;;;104.25;99.55;;;;;;;26.68;39.98;101954.25;5094648;28;20055;-69
2023/07/10 03:15:58;;;;;;;104.07;99.38;;;;;;;26.67;39.91;101949.03;5093994;28;20040;-70
2023/07/10 03:18:23;;;;;;;107.97;102.82;;;;;;;26.64;40.18;101958.81;5095060;28;20460;-70
2023/07/10 03:20:48;;;;;;;108.80;103.68;;;;;;;26.61;39.96;101953.09;5094837;28;20028;-69
2023/07/10 03:23:14;;;;;;;106.40;101.40;;;;;;;26.59;40.11;101958.97;5093469;28;20032;-70
2023/07/10 03:25:39;;;;;;;101.55;96.72;;;;;;;26.58;40.40;101948.19;5093626;28;20036;-70
2023/07/10 03:28:04;;;;;;;102.53;97.82;;;;;;;26.55;40.09;101963.50;5094939;28;20375;-69
2023/07/10 03:30:30;;;;;;;102.60;97.93;;;;;;;26.53;40.26;101954.69;5093188;28;20028;-70
2023/07/10 03:32:55;;;;;;;109.30;104.30;;;;;;;26.51;40.13;101951.41;5094591;28;20111;-70
2023/07/10 03:35:21;;;;;;;107.97;102.93;;;;;;;26.48;39.95;101960.38;5094442;28;20032;-69
2023/07/10 03:37:46;;;;;;;103.70;98.88;;;;;;;26.46;40.19;101962.63;5094405;28;20105;-70
2023/07/10 03:40:12;;;;;;;107.18;102.38;;;;;;;26.43;40.38;101961.31;5093063;28;20119;-71
2023/07/10 03:42:37;;;;;;;109.18;104.05;;;;;;;26.40;40.31;101956.44;5094422;28;20043;-71
2023/07/10 03:45:03;;;;;;;107.35;102.28;;;;;;;26.38;40.31;101960.66;5094257;28;20119;-70
2023/07/10 03:47:28;;;;;;;105.22;100.47;;;;;;;26.36;40.33;101968.47;5094313;28;20456;-70
2023/07/10 03:49:54;;;;;;;108.80;103.80;;;;;;;26.33;40.29;101969.94;5093952;28;20481;-70
2023/07/10 03:52:19;;;;;;;105.75;100.85;;;;;;;26.29;40.28;101967.00;5093749;28;20082;-69
2023/07/10 03:54:44;;;;;;;105.45;100.65;;;;;;;26.29;40.55;101977.25;5093649;28;20028;-70
2023/07/10 03:57:10;;;;;;;106.05;101.05;;;;;;;26.26;40.25;101975.94;5094472;28;20068;-70
2023/07/10 03:59:35;;;;;;;102.18;97.47;;;;;;;26.23;40.31;101984.91;5094327;28;20036;-71
2023/07/10 04:02:00;;;;;;;105.07;100.30;;;;;;;26.21;40.09;101981.63;5092586;28;20039;-70
2023/07/10 04:04:26;;;;;;;102.47;97.43;;;;;;;26.18;40.16;101985.00;5094339;28;20365;-69
2023/07/10 04:06:51;;;;;;;105.60;100.88;;;;;;;26.17;40.08;101991.69;5094395;28;20053;-71
2023/07/10 04:09:17;;;;;;;102.78;97.72;;;;;;;26.14;40.40;101992.34;5093992;28;20067;-71
2023/07/10 04:11:42;;;;;;;103.82;98.82;;;;;;;26.11;40.18;101996.56;5093658;28;20032;-70
2023/07/10 04:14:08;;;;;;;102.65;97.68;;;;;;;26.08;40.70;101991.66;5094423;28;20369;-70
2023/07/10 04:16:33;;;;;;;99.63;94.95;;;;;;;26.07;40.68;101989.19;5093886;28;20036;-70
2023/07/10 04:18:58;;;;;;;105.47;100.63;;;;;;;26.05;40.20;101991.47;5093647;28;20028;-70
2023/07/10 04:21:27;;;;;;;102.10;97.35;;;;;;;26.02;40.54;101989.34;5093756;28;20035;-70
2023/07/10 04:23:53;;;;;;;103.22;98.20;;;;;;;26.00;40.18;101997.13;5093583;28;20024;-75
2023/07/10 04:26:20;;;;;;;99.85;95.13;;;;;;;25.97;40.63;101992.25;5093608;28;20056;-70
2023/07/10 04:28:47;;;;;;;104.93;100.18;;;;;;;25.95;40.22;101986.19;5093584;28;20107;-70
2023/07/10 04:31:14;;;;;;;101.55;96.15;;;;;;;25.93;40.53;101996.78;5094028;28;20028;-70
2023/07/10 04:33:39;;;;;;;104.93;99.95;;;;;;;25.90;40.82;101990.75;5093544;28;20036;-70
2023/07/10 04:36:05;;;;;;;104.53;99.80;;;;;;;25.88;40.75;101990.25;5092410;28;20050;-71
2023/07/10 04:38:30;;;;;;;103.40;98.05;;;;;;;25.86;40.74;101995.28;5092114;28;20051;-70
2023/07/10 04:41:05;;;;;;;101.60;95.97;;;;;;;25.84;40.75;101991.97;5093691;28;20111;-70
2023/07/10 04:43:32;;;;;;;101.57;96.53;;;;;;;25.82;40.76;101987.88;5093536;28;20028;-70
2023/07/10 04:46:00;;;;;;;101.90;97.22;;;;;;;25.79;40.88;101994.88;5093417;28;20036;-70
2023/07/10 04:48:26;;;;;;;102.07;97.43;;;;;;;25.77;41.02;101999.91;5093941;28;20032;-70
2023/07/10 04:50:53;;;;;;;102.60;97.53;;;;;;;25.75;40.60;102007.69;5093596;28;20059;-70
2023/07/10 04:53:20;;;;;;;104.22;99.05;;;;;;;25.73;40.70;102004.47;5093406;28;20472;-69
2023/07/10 04:55:48;;;;;;;100.20;95.55;;;;;;;25.71;40.75;102008.66;5093361;28;20056;-70
2023/07/10 04:58:14;;;;;;;101.72;96.75;;;;;;;25.69;40.62;102011.75;5093606;28;20039;-70
2023/07/10 05:00:39;;;;;;;100.28;95.63;;;;;;;25.67;41.11;102002.94;5093023;28;20032;-71
2023/07/10 05:03:06;;;;;;;104.03;99.13;;;;;;;25.65;40.72;102008.78;5093309;28;20059;-71
2023/07/10 05:05:32;;;;;;;102.28;97.45;;;;;;;25.63;40.99;102005.53;5095275;28;20024;-70
2023/07/10 05:07:57;;;;;;;100.38;95.72;;;;;;;25.62;40.73;102014.13;5097664;28;20486;-70
2023/07/10 05:10:23;;;;;;;98.85;93.30;;;;;;;25.60;41.01;102010.84;5097123;28;20039;-70
2023/07/10 05:12:50;;;;;;;98.85;94.35;;;;;;;25.59;40.98;102012.00;5097042;28;20052;-70
2023/07/10 05:15:15;;;;;;;101.22;96.43;;;;;;;25.57;40.96;102023.38;5097172;28;20032;-70
2023/07/10 05:17:41;;;;;;;98.97;94.22;;;;;;;25.55;41.07;102014.59;5097682;28;20039;-70
2023/07/10 05:20:07;;;;;;;101.60;96.60;;;;;;;25.55;41.00;102024.81;5096828;28;20028;-70
2023/07/10 05:22:33;;;;;;;107.85;102.90;;;;;;;25.54;41.05;102025.94;5095988;28;20465;-71
2023/07/10 05:24:58;;;;;;;100.10;95.07;;;;;;;25.53;40.93;102027.91;5097076;28;20032;-73
2023/07/10 05:27:24;;;;;;;95.72;91.13;;;;;;;25.52;40.79;102025.44;5097101;28;20056;-71
2023/07/10 05:29:49;;;;;;;95.07;90.75;;;;;;;25.51;40.71;102030.16;5097592;28;20036;-70
2023/07/10 05:32:14;;;;;;;96.82;92.20;;;;;;;25.51;40.66;102023.81;5096928;28;20106;-70
2023/07/10 05:34:41;;;;;;;96.95;92.28;;;;;;;25.52;40.77;102019.91;5097271;28;20032;-70
2023/07/10 05:37:06;;;;;;;99.82;95.22;;;;;;;25.50;40.57;102022.16;5096777;28;20083;-70
2023/07/10 05:39:32;;;;;;;98.85;94.20;;;;;;;25.48;40.97;102023.31;5096866;28;20028;-71
2023/07/10 05:41:58;;;;;;;97.72;92.97;;;;;;;25.48;40.54;102020.53;5097000;28;20033;-71
2023/07/10 05:44:23;;;;;;;97.13;92.72;;;;;;;25.48;40.95;102023.31;5096757;28;20036;-74
2023/07/10 05:46:49;;;;;;;98.10;93.43;;;;;;;25.47;40.46;102018.88;5096651;28;20058;-72
2023/07/10 05:49:14;;;;;;;94.00;89.20;;;;;;;25.47;40.41;102021.66;5095599;28;20115;-71
2023/07/10 05:51:40;;;;;;;95.45;91.07;;;;;;;25.46;40.89;102028.31;5096944;28;20448;-72
2023/07/10 05:54:05;;;;;;;95.10;90.60;;;;;;;25.45;40.62;102018.41;5096664;28;20078;-71
2023/07/10 05:56:31;;;;;;;95.72;91.35;;;;;;;25.46;40.79;102021.97;5096495;28;20039;-70
2023/07/10 05:58:56;;;;;;;100.75;95.30;;;;;;;25.46;40.62;102021.97;5096370;28;20089;-71
2023/07/10 06:01:22;;;;;;;99.53;94.53;;;;;;;25.45;40.37;102020.34;5094790;28;20040;-72
2023/07/10 06:03:47;;;;;;;96.85;92.18;;;;;;;25.45;40.42;102021.19;5096392;28;20036;-72
2023/07/10 06:06:13;;;;;;;96.97;92.53;;;;;;;25.44;40.80;102027.81;5096731;28;20420;-71
2023/07/10 06:08:39;;;;;;;98.93;94.25;;;;;;;25.42;40.48;102018.19;5096085;28;20139;-71
2023/07/10 06:11:05;;;;;;;98.07;93.32;;;;;;;25.40;40.49;102026.81;5095971;28;20058;-74
2023/07/10 06:13:32;;;;;;;98.60;92.75;;;;;;;25.40;40.90;102026.81;5095733;28;20127;-72
2023/07/10 06:15:59;;;;;;;94.40;90.00;;;;;;;25.39;40.60;102027.94;5096285;28;20036;-70
2023/07/10 06:18:25;;;;;;;97.82;93.15;;;;;;;25.38;40.89;102026.31;5095304;28;20028;-71
2023/07/10 06:20:53;;;;;;;95.85;91.45;;;;;;;25.37;40.55;102027.44;5095847;28;20032;-70
2023/07/10 06:23:19;;;;;;;97.07;92.22;;;;;;;25.37;40.51;102038.50;5094365;28;20460;-69
2023/07/10 06:25:44;;;;;;;97.47;92.75;;;;;;;25.39;40.64;102038.19;5096270;28;20036;-70
2023/07/10 06:28:10;;;;;;;98.85;93.05;;;;;;;25.39;40.93;102035.44;5095558;28;20051;-70
2023/07/10 06:30:41;;;;;;;95.65;91.10;;;;;;;25.40;40.65;102037.88;5095355;28;20036;-72
2023/07/10 06:33:07;;;;;;;98.20;93.68;;;;;;;25.40;40.52;102046.19;5095564;28;20146;-72
2023/07/10 06:35:32;;;;;;;96.13;91.75;;;;;;;25.41;40.68;102038.69;5095620;28;20067;-69
2023/07/10 06:37:58;;;;;;;94.50;90.13;;;;;;;25.40;40.50;102035.13;5094758;28;20421;-74
2023/07/10 06:40:23;;;;;;;96.63;91.43;;;;;;;25.42;40.68;102040.31;5095754;28;20083;-74
2023/07/10 06:42:49;;;;;;;99.32;94.72;;;;;;;25.43;40.81;102045.56;5095573;28;20032;-73
2023/07/10 06:45:14;;;;;;;97.57;92.90;;;;;;;25.45;40.78;102059.91;5095407;28;20418;-70
2023/07/10 06:47:42;;;;;;;95.28;90.53;;;;;;;25.47;40.80;102056.81;5094766;28;20035;-71
2023/07/10 06:50:09;;;;;;;95.60;91.00;;;;;;;25.48;41.27;102059.28;5095752;28;20039;-79
2023/07/10 06:52:39;;;;;;;96.43;91.97;;;;;;;25.51;40.78;102054.25;5094032;28;20086;-78
2023/07/10 06:55:06;;;;;;;97.80;93.20;;;;;;;25.53;41.33;102057.50;5095186;28;20028;-71
2023/07/10 06:57:31;;;;;;;95.97;91.22;;;;;;;25.53;41.39;102050.03;5095337;28;20060;-72
2023/07/10 06:59:57;;;;;;;97.70;92.85;;;;;;;25.55;41.12;102058.84;5096047;28;20128;-69
2023/07/10 07:02:22;;;;;;;96.85;91.55;;;;;;;25.56;41.38;102059.66;5094947;28;20043;-77
2023/07/10 07:04:47;;;;;;;96.18;91.38;;;;;;;25.57;41.46;102062.09;5094991;28;20486;-73
2023/07/10 07:07:13;;;;;;;97.32;92.82;;;;;;;25.58;41.36;102057.41;5095112;28;20081;-73
2023/07/10 07:09:38;;;;;;;93.80;89.40;;;;;;;25.60;41.29;102061.50;5095212;28;20372;-76
2023/07/10 07:12:04;;;;;;;98.30;93.45;;;;;;;25.61;41.78;102056.78;5094846;28;20059;-72
2023/07/10 07:14:29;;;;;;;100.10;95.53;;;;;;;25.65;41.84;102055.84;5095048;28;20075;-77
2023/07/10 07:16:55;;;;;;;101.53;96.63;;;;;;;25.67;41.63;102058.28;5093611;28;20032;-73
2023/07/10 07:19:20;;;;;;;96.90;92.18;;;;;;;25.72;41.44;102065.63;5094654;28;20036;-72
2023/07/10 07:21:46;;;;;;;95.63;90.70;;;;;;;25.74;41.99;102066.97;5094706;28;20039;-72
2023/07/10 07:24:11;;;;;;;98.90;94.32;;;;;;;25.78;41.60;102067.13;5094664;28;20074;-72
2023/07/10 07:26:36;;;;;;;101.90;97.15;;;;;;;25.81;41.47;102066.53;5093636;28;20036;-74
2023/07/10 07:29:02;;;;;;;99.00;94.35;;;;;;;25.84;41.55;102068.66;5093572;28;20036;-72
2023/07/10 07:31:28;;;;;;;100.22;95.55;;;;;;;25.87;41.77;102059.75;5094453;28;20023;-72
2023/07/10 07:33:54;;;;;;;99.55;94.75;;;;;;;25.91;42.03;102060.78;5094134;28;20028;-72
2023/07/10 07:36:20;;;;;;;102.47;97.18;;;;;;;25.94;41.80;102065.69;5094295;28;20460;-73
2023/07/10 07:38:46;;;;;;;99.93;95.15;;;;;;;25.99;41.72;102065.53;5094264;28;20032;-72
2023/07/10 07:41:11;;;;;;;101.47;95.70;;;;;;;26.02;41.94;102072.41;5094769;28;20452;-72
2023/07/10 07:43:37;;;;;;;100.97;96.38;;;;;;;26.04;42.28;102068.19;5094066;28;20101;-73
2023/07/10 07:46:02;;;;;;;104.00;99.10;;;;;;;26.10;41.81;102068.88;5094234;28;20028;-73
2023/07/10 07:48:28;;;;;;;101.72;96.80;;;;;;;26.13;41.69;102062.69;5094017;28;20081;-73
2023/07/10 07:50:57;;;;;;;101.80;96.45;;;;;;;26.18;42.27;102054.25;5094427;28;20074;-73
2023/07/10 07:53:22;;;;;;;108.10;103.05;;;;;;;26.20;41.78;102057.53;5093992;28;20032;-73
2023/07/10 07:55:48;;;;;;;99.80;94.72;;;;;;;26.24;42.30;102052.19;5094077;28;20555;-73
2023/07/10 07:58:13;;;;;;;101.32;96.38;;;;;;;26.28;41.75;102054.00;5094035;28;20157;-74
2023/07/10 08:00:39;;;;;;;104.43;99.70;;;;;;;26.33;41.89;102051.09;5093903;28;20032;-73
2023/07/10 08:03:04;;;;;;;106.70;101.40;;;;;;;26.39;41.68;102057.31;5093937;28;20089;-72
2023/07/10 08:05:30;;;;;;;105.40;100.45;;;;;;;26.45;41.85;102064.34;5093833;28;20462;-72
2023/07/10 08:07:55;;;;;;;106.78;101.45;;;;;;;26.50;42.14;102057.84;5094244;28;20024;-72
2023/07/10 08:10:20;;;;;;;107.65;102.35;;;;;;;26.55;42.06;102053.00;5094450;28;20118;-73
2023/07/10 08:12:46;;;;;;;113.97;108.80;;;;;;;26.60;42.09;102052.03;5093575;28;20480;-73
2023/07/10 08:15:11;;;;;;;107.10;101.90;;;;;;;26.66;41.77;102061.88;5092155;28;20036;-75
2023/07/10 08:17:36;;;;;;;106.28;101.32;;;;;;;26.71;42.19;102053.41;5094243;28;20053;-72
2023/07/10 08:20:02;;;;;;;110.40;104.93;;;;;;;26.77;41.88;102052.09;5093487;28;20540;-72
2023/07/10 08:22:27;;;;;;;106.47;101.68;;;;;;;26.85;41.61;102049.69;5093465;28;20028;-72
2023/07/10 08:24:53;;;;;;;106.10;101.30;;;;;;;26.89;41.65;102056.22;5093764;28;20032;-72
2023/07/10 08:27:18;;;;;;;103.57;98.05;;;;;;;26.95;41.35;102061.28;5093323;28;20032;-72
2023/07/10 08:29:44;;;;;;;106.07;100.97;;;;;;;27.01;41.33;102058.38;5093408;28;20031;-73
2023/07/10 08:32:10;;;;;;;107.47;102.50;;;;;;;27.08;41.78;102070.63;5093387;28;20047;-72
2023/07/10 08:34:35;;;;;;;105.10;100.55;;;;;;;27.14;41.55;102062.94;5093371;28;20032;-73
2023/07/10 08:37:01;;;;;;;104.68;99.20;;;;;;;27.21;41.75;102062.50;5094022;28;20089;-71
2023/07/10 08:39:27;;;;;;;108.10;102.40;;;;;;;27.27;41.71;102061.22;5093155;28;20464;-71
2023/07/10 08:42:00;;;;;;;107.35;102.45;;;;;;;27.34;41.25;102056.84;5093463;28;20032;-71
2023/07/10 08:44:37;;;;;;;110.88;105.88;;;;;;;27.42;41.39;102052.44;5093500;28;20073;-72
2023/07/10 08:47:24;;;;;;;110.72;105.50;;;;;;;27.48;41.39;102053.88;5093364;28;20024;-72
2023/07/10 08:49:58;;;;;;;111.07;105.67;;;;;;;27.54;41.70;102052.59;5094283;28;20024;-72
2023/07/10 08:52:35;;;;;;;106.32;101.50;;;;;;;27.62;41.51;102053.75;5093305;28;20464;-78
2023/07/10 08:55:01;;;;;;;110.43;105.57;;;;;;;27.70;41.50;102063.19;5093480;28;20188;-72
2023/07/10 08:57:31;;;;;;;113.18;108.18;;;;;;;27.78;41.16;102062.38;5093298;28;20111;-72
2023/07/10 09:00:09;;;;;;;115.15;109.75;;;;;;;27.85;41.18;102068.28;5093980;28;20025;-72
2023/07/10 09:02:42;;;;;;;114.65;109.20;;;;;;;27.93;40.85;102069.41;5093841;28;20024;-72
2023/07/10 09:05:14;;;;;;;111.88;106.95;;;;;;;28.00;40.91;102075.28;5094081;28;20039;-71
2023/07/10 09:07:43;;;;;;;117.20;111.45;;;;;;;28.08;40.81;102068.09;5093543;28;20448;-72
2023/07/10 09:10:18;;;;;;;116.93;111.72;;;;;;;28.16;40.77;102058.91;5093285;28;20195;-72
2023/07/10 09:12:48;;;;;;;117.05;111.90;;;;;;;28.22;40.42;102058.41;5093207;28;20066;-72
2023/07/10 09:15:19;;;;;;;114.93;109.70;;;;;;;28.30;40.57;102058.69;5093312;28;20036;-72
2023/07/10 09:17:59;;;;;;;117.03;111.82;;;;;;;28.36;40.26;102063.75;5093496;28;20032;-72
2023/07/10 09:20:25;;;;;;;116.88;111.50;;;;;;;28.43;40.19;102058.50;5093183;28;20115;-72
2023/07/10 09:23:02;;;;;;;122.70;116.97;;;;;;;28.49;40.32;102056.38;5093415;28;20439;-72
2023/07/10 09:25:28;;;;;;;125.23;119.50;;;;;;;28.56;40.05;102055.84;5093043;28;20348;-72
2023/07/10 09:27:56;;;;;;;122.57;117.25;;;;;;;28.63;40.28;102064.50;5092962;28;20285;-72
2023/07/10 09:30:36;;;;;;;120.20;115.03;;;;;;;28.69;39.79;102060.38;5092652;28;20028;-75
2023/07/10 09:33:07;;;;;;;119.38;114.03;;;;;;;28.75;39.84;102059.00;5093045;28;20081;-71
2023/07/10 09:35:35;;;;;;;118.57;113.40;;;;;;;28.83;39.79;102060.16;5092968;28;20059;-71
2023/07/10 09:38:01;;;;;;;116.70;111.38;;;;;;;28.89;39.76;102059.59;5093739;28;20087;-72
2023/07/10 09:40:34;;;;;;;122.95;117.57;;;;;;;28.94;39.37;102061.38;5092519;28;20430;-72
2023/07/10 09:43:05;;;;;;;134.57;128.55;;;;;;;28.99;39.59;102055.63;5092973;28;20028;-72
2023/07/10 09:45:36;;;;;;;125.28;119.45;;;;;;;29.05;39.43;102050.66;5092534;28;20044;-70
2023/07/10 09:48:10;;;;;;;122.65;117.05;;;;;;;29.11;39.16;102061.31;5092593;28;20028;-72
2023/07/10 09:50:36;;;;;;;119.25;113.95;;;;;;;29.17;39.35;102063.88;5092726;28;20068;-72
2023/07/10 09:53:01;;;;;;;126.18;120.68;;;;;;;29.22;39.09;102066.47;5095435;28;20387;-72
2023/07/10 09:55:27;;;;;;;133.98;128.07;;;;;;;29.27;39.04;102061.50;5096404;28;20032;-72
2023/07/10 09:58:03;;;;;;;126.03;120.43;;;;;;;29.33;39.12;102056.53;5096343;28;20040;-71
2023/07/10 10:00:29;;;;;;;124.82;119.25;;;;;;;29.39;39.04;102063.56;5096399;28;20039;-71
2023/07/10 10:02:56;;;;;;;130.13;124.47;;;;;;;29.44;38.79;102054.19;5096056;28;20073;-71
2023/07/10 10:05:22;;;;;;;123.70;118.30;;;;;;;29.50;39.02;102061.16;5096653;28;20039;-77
2023/07/10 10:07:51;;;;;;;128.48;122.75;;;;;;;29.54;38.76;102065.72;5096498;28;20100;-71
2023/07/10 10:10:27;;;;;;;131.40;125.75;;;;;;;29.59;38.82;102059.13;5094907;28;20110;-71
2023/07/10 10:13:23;;;;;;;131.95;126.15;;;;;;;29.65;38.53;102055.00;5096012;28;20491;-70
2023/07/10 10:15:51;;;;;;;126.72;121.22;;;;;;;29.72;38.20;102062.81;5096218;28;20024;-73
2023/07/10 10:18:32;;;;;;;132.85;126.90;;;;;;;29.77;37.96;102057.84;5094900;28;20035;-73
2023/07/10 10:20:59;;;;;;;131.35;125.55;;;;;;;29.81;38.09;102051.59;5096332;28;20020;-72
2023/07/10 10:23:35;;;;;;;135.43;129.60;;;;;;;29.86;38.17;102054.16;5096054;28;20123;-71
2023/07/10 10:26:29;;;;;;;132.70;126.55;;;;;;;29.92;37.89;102061.97;5095768;28;20162;-71
2023/07/10 10:29:19;;;;;;;135.38;129.52;;;;;;;29.97;37.87;102049.78;5090910;28;20483;-71
2023/07/10 10:31:53;;;;;;;129.43;123.32;;;;;;;30.04;37.83;102038.06;5095902;28;20035;-71
2023/07/10 10:34:27;;;;;;;132.38;126.20;;;;;;;30.09;37.99;102044.25;5096213;28;20154;-71
2023/07/10 10:37:23;;;;;;;134.35;128.38;;;;;;;30.16;37.62;102047.28;5096047;28;20043;-75
2023/07/10 10:40:04;;;;;;;132.23;126.60;;;;;;;30.22;37.57;102041.50;5095815;28;20023;-71
2023/07/10 10:43:06;;;;;;;132.75;126.68;;;;;;;30.29;37.34;102041.75;5096099;28;20039;-71
2023/07/10 10:45:40;;;;;;;137.65;131.85;;;;;;;30.35;37.01;102043.16;5095208;28;20446;-71
2023/07/10 10:48:24;;;;;;;130.85;125.28;;;;;;;30.41;37.15;102052.91;5095498;28;20089;-71
2023/07/10 10:50:58;;;;;;;138.77;132.77;;;;;;;30.46;37.48;102061.06;5095476;28;20046;-72
2023/07/10 10:53:42;;;;;;;137.02;131.32;;;;;;;30.54;37.05;102059.31;5095882;28;20028;-71
2023/07/10 10:56:26;;;;;;;141.43;135.10;;;;;;;30.58;37.02;102058.28;5095289;28;20482;-74
2023/07/10 10:59:07;;;;;;;137.63;131.88;;;;;;;30.65;36.77;102057.69;5096012;28;20135;-73
2023/07/10 11:01:41;;;;;;;139.05;132.68;;;;;;;30.72;36.71;102062.69;5095468;28;20032;-73
2023/07/10 11:04:23;;;;;;;142.75;136.70;;;;;;;30.78;36.83;102055.72;5095836;28;20052;-71